sensor_id;sensor_type;location;lat;lon;timestamp;temperature;humidity
19680;DHT22;9989;48.962;9.182;2023-06-26T00:00:22;22.10;86.00
19680;DHT22;9989;48.962;9.182;2023-06-26T00:02:48;22.10;86.10
19680;DHT22;9989;48.962;9.182;2023-06-26T00:05:13;22.00;86.20
19680;DHT22;9989;48.962;9.182;2023-06-26T00:07:41;21.90;86.50
19680;DHT22;9989;48.962;9.182;2023-06-26T00:10:07;21.90;86.80
19680;DHT22;9989;48.962;9.182;2023-06-26T00:12:33;21.80;87.00
19680;DHT22;9989;48.962;9.182;2023-06-26T00:14:58;21.80;87.30
19680;DHT22;9989;48.962;9.182;2023-06-26T00:17:24;21.80;87.40
19680;DHT22;9989;48.962;9.182;2023-06-26T00:19:50;21.80;87.10
19680;DHT22;9989;48.962;9.182;2023-06-26T00:22:16;21.80;87.00
19680;DHT22;9989;48.962;9.182;2023-06-26T00:24:42;21.80;87.10
19680;DHT22;9989;48.962;9.182;2023-06-26T00:27:10;21.70;87.30
19680;DHT22;9989;48.962;9.182;2023-06-26T00:29:35;21.70;87.50
19680;DHT22;9989;48.962;9.182;2023-06-26T00:32:01;21.70;87.60
19680;DHT22;9989;48.962;9.182;2023-06-26T00:34:26;21.60;88.60
19680;DHT22;9989;48.962;9.182;2023-06-26T00:36:55;21.60;88.10
19680;DHT22;9989;48.962;9.182;2023-06-26T00:39:21;21.60;88.70
19680;DHT22;9989;48.962;9.182;2023-06-26T00:41:46;21.50;89.40
19680;DHT22;9989;48.962;9.182;2023-06-26T00:44:13;21.50;89.70
19680;DHT22;9989;48.962;9.182;2023-06-26T00:46:41;21.50;90.00
19680;DHT22;9989;48.962;9.182;2023-06-26T00:49:06;21.50;90.20
19680;DHT22;9989;48.962;9.182;2023-06-26T00:51:32;21.50;90.50
19680;DHT22;9989;48.962;9.182;2023-06-26T00:53:58;21.40;90.50
19680;DHT22;9989;48.962;9.182;2023-06-26T00:56:28;21.40;90.60
19680;DHT22;9989;48.962;9.182;2023-06-26T00:58:54;21.40;90.70
19680;DHT22;9989;48.962;9.182;2023-06-26T01:01:22;21.30;90.90
19680;DHT22;9989;48.962;9.182;2023-06-26T01:03:51;21.30;91.00
19680;DHT22;9989;48.962;9.182;2023-06-26T01:06:21;21.20;91.00
19680;DHT22;9989;48.962;9.182;2023-06-26T01:08:47;21.20;91.10
19680;DHT22;9989;48.962;9.182;2023-06-26T01:11:17;21.20;91.10
19680;DHT22;9989;48.962;9.182;2023-06-26T01:13:43;21.10;91.20
19680;DHT22;9989;48.962;9.182;2023-06-26T01:16:15;21.10;91.20
19680;DHT22;9989;48.962;9.182;2023-06-26T01:18:45;21.10;91.40
19680;DHT22;9989;48.962;9.182;2023-06-26T01:21:11;21.10;91.50
19680;DHT22;9989;48.962;9.182;2023-06-26T01:23:58;21.00;91.50
19680;DHT22;9989;48.962;9.182;2023-06-26T01:26:33;21.00;91.60
19680;DHT22;9989;48.962;9.182;2023-06-26T01:29:06;20.90;91.70
19680;DHT22;9989;48.962;9.182;2023-06-26T01:31:36;20.90;91.80
19680;DHT22;9989;48.962;9.182;2023-06-26T01:34:05;20.90;91.90
19680;DHT22;9989;48.962;9.182;2023-06-26T01:36:31;20.90;92.00
19680;DHT22;9989;48.962;9.182;2023-06-26T01:38:56;20.90;92.00
19680;DHT22;9989;48.962;9.182;2023-06-26T01:41:22;20.90;92.00
19680;DHT22;9989;48.962;9.182;2023-06-26T01:46:40;20.90;92.00
19680;DHT22;9989;48.962;9.182;2023-06-26T01:49:29;20.80;92.00
19680;DHT22;9989;48.962;9.182;2023-06-26T01:52:12;20.80;92.20
19680;DHT22;9989;48.962;9.182;2023-06-26T01:54:59;20.70;92.20
19680;DHT22;9989;48.962;9.182;2023-06-26T01:57:33;20.70;92.30
19680;DHT22;9989;48.962;9.182;2023-06-26T02:00:00;20.70;92.40
19680;DHT22;9989;48.962;9.182;2023-06-26T02:02:28;20.60;92.50
19680;DHT22;9989;48.962;9.182;2023-06-26T02:04:54;20.60;92.70
19680;DHT22;9989;48.962;9.182;2023-06-26T02:07:20;20.60;92.80
19680;DHT22;9989;48.962;9.182;2023-06-26T02:09:45;20.50;93.00
19680;DHT22;9989;48.962;9.182;2023-06-26T02:12:11;20.50;93.10
19680;DHT22;9989;48.962;9.182;2023-06-26T02:14:40;20.50;93.20
19680;DHT22;9989;48.962;9.182;2023-06-26T02:17:05;20.40;93.40
19680;DHT22;9989;48.962;9.182;2023-06-26T02:19:34;20.40;93.50
19680;DHT22;9989;48.962;9.182;2023-06-26T02:21:59;20.40;93.60
19680;DHT22;9989;48.962;9.182;2023-06-26T02:24:25;20.30;93.60
19680;DHT22;9989;48.962;9.182;2023-06-26T02:26:58;20.30;93.80
19680;DHT22;9989;48.962;9.182;2023-06-26T02:29:23;20.30;93.90
19680;DHT22;9989;48.962;9.182;2023-06-26T02:31:49;20.20;94.00
19680;DHT22;9989;48.962;9.182;2023-06-26T02:34:15;20.20;94.00
19680;DHT22;9989;48.962;9.182;2023-06-26T02:36:40;20.20;94.10
19680;DHT22;9989;48.962;9.182;2023-06-26T02:39:06;20.10;94.10
19680;DHT22;9989;48.962;9.182;2023-06-26T02:41:32;20.10;94.20
19680;DHT22;9989;48.962;9.182;2023-06-26T02:43:59;20.10;94.40
19680;DHT22;9989;48.962;9.182;2023-06-26T02:46:25;20.00;94.50
19680;DHT22;9989;48.962;9.182;2023-06-26T02:48:51;20.00;94.60
19680;DHT22;9989;48.962;9.182;2023-06-26T02:51:17;20.00;94.60
19680;DHT22;9989;48.962;9.182;2023-06-26T02:53:42;20.00;94.70
19680;DHT22;9989;48.962;9.182;2023-06-26T02:56:11;19.90;94.80
19680;DHT22;9989;48.962;9.182;2023-06-26T02:58:36;19.90;94.90
19680;DHT22;9989;48.962;9.182;2023-06-26T03:01:04;19.90;95.00
19680;DHT22;9989;48.962;9.182;2023-06-26T03:03:30;19.80;95.10
19680;DHT22;9989;48.962;9.182;2023-06-26T03:05:56;19.80;95.30
19680;DHT22;9989;48.962;9.182;2023-06-26T03:08:22;19.80;95.40
19680;DHT22;9989;48.962;9.182;2023-06-26T03:10:48;19.80;95.50
19680;DHT22;9989;48.962;9.182;2023-06-26T03:13:13;19.80;95.60
19680;DHT22;9989;48.962;9.182;2023-06-26T03:15:39;19.80;95.70
19680;DHT22;9989;48.962;9.182;2023-06-26T03:18:04;19.70;95.90
19680;DHT22;9989;48.962;9.182;2023-06-26T03:20:30;19.70;96.00
19680;DHT22;9989;48.962;9.182;2023-06-26T03:22:56;19.70;96.00
19680;DHT22;9989;48.962;9.182;2023-06-26T03:25:21;19.70;96.10
19680;DHT22;9989;48.962;9.182;2023-06-26T03:27:47;19.70;96.20
19680;DHT22;9989;48.962;9.182;2023-06-26T03:30:13;19.60;96.30
19680;DHT22;9989;48.962;9.182;2023-06-26T03:32:41;19.60;96.50
19680;DHT22;9989;48.962;9.182;2023-06-26T03:35:07;19.60;96.60
19680;DHT22;9989;48.962;9.182;2023-06-26T03:37:33;19.60;96.80
19680;DHT22;9989;48.962;9.182;2023-06-26T03:40:01;19.60;96.90
19680;DHT22;9989;48.962;9.182;2023-06-26T03:42:30;19.60;97.10
19680;DHT22;9989;48.962;9.182;2023-06-26T03:44:55;19.50;97.20
19680;DHT22;9989;48.962;9.182;2023-06-26T03:47:21;19.50;97.30
19680;DHT22;9989;48.962;9.182;2023-06-26T03:49:46;19.50;97.30
19680;DHT22;9989;48.962;9.182;2023-06-26T03:52:12;19.50;97.30
19680;DHT22;9989;48.962;9.182;2023-06-26T03:54:37;19.60;97.40
19680;DHT22;9989;48.962;9.182;2023-06-26T03:57:03;19.60;97.50
19680;DHT22;9989;48.962;9.182;2023-06-26T03:59:29;19.60;97.60
19680;DHT22;9989;48.962;9.182;2023-06-26T04:01:55;19.60;97.60
19680;DHT22;9989;48.962;9.182;2023-06-26T04:04:20;19.70;97.70
19680;DHT22;9989;48.962;9.182;2023-06-26T04:06:46;19.70;97.60
19680;DHT22;9989;48.962;9.182;2023-06-26T04:09:12;19.80;97.50
19680;DHT22;9989;48.962;9.182;2023-06-26T04:11:37;19.80;97.40
19680;DHT22;9989;48.962;9.182;2023-06-26T04:14:03;19.80;97.40
19680;DHT22;9989;48.962;9.182;2023-06-26T04:16:28;19.90;97.50
19680;DHT22;9989;48.962;9.182;2023-06-26T04:18:54;19.90;97.40
19680;DHT22;9989;48.962;9.182;2023-06-26T04:21:22;19.90;97.30
19680;DHT22;9989;48.962;9.182;2023-06-26T04:23:52;19.90;97.30
19680;DHT22;9989;48.962;9.182;2023-06-26T04:26:18;20.00;97.40
19680;DHT22;9989;48.962;9.182;2023-06-26T04:28:44;20.00;97.40
19680;DHT22;9989;48.962;9.182;2023-06-26T04:31:10;20.00;97.30
19680;DHT22;9989;48.962;9.182;2023-06-26T04:33:36;20.00;97.20
19680;DHT22;9989;48.962;9.182;2023-06-26T04:36:03;20.10;97.20
19680;DHT22;9989;48.962;9.182;2023-06-26T04:38:30;20.10;97.20
19680;DHT22;9989;48.962;9.182;2023-06-26T04:40:56;20.10;97.00
19680;DHT22;9989;48.962;9.182;2023-06-26T04:43:22;20.20;97.00
19680;DHT22;9989;48.962;9.182;2023-06-26T04:45:47;20.20;97.20
19680;DHT22;9989;48.962;9.182;2023-06-26T04:48:13;20.30;97.60
19680;DHT22;9989;48.962;9.182;2023-06-26T04:50:39;20.30;97.10
19680;DHT22;9989;48.962;9.182;2023-06-26T04:53:05;20.40;97.20
19680;DHT22;9989;48.962;9.182;2023-06-26T04:55:31;20.40;97.30
19680;DHT22;9989;48.962;9.182;2023-06-26T04:57:57;20.50;97.40
19680;DHT22;9989;48.962;9.182;2023-06-26T05:00:25;20.50;97.20
19680;DHT22;9989;48.962;9.182;2023-06-26T05:02:51;20.60;97.40
19680;DHT22;9989;48.962;9.182;2023-06-26T05:05:26;20.60;97.30
19680;DHT22;9989;48.962;9.182;2023-06-26T05:07:56;20.70;97.00
19680;DHT22;9989;48.962;9.182;2023-06-26T05:10:22;20.80;96.60
19680;DHT22;9989;48.962;9.182;2023-06-26T05:12:48;20.80;96.60
19680;DHT22;9989;48.962;9.182;2023-06-26T05:15:13;20.90;96.50
19680;DHT22;9989;48.962;9.182;2023-06-26T05:17:39;20.90;96.40
19680;DHT22;9989;48.962;9.182;2023-06-26T05:20:05;21.00;96.30
19680;DHT22;9989;48.962;9.182;2023-06-26T05:22:32;21.10;96.30
19680;DHT22;9989;48.962;9.182;2023-06-26T05:24:59;21.10;96.10
19680;DHT22;9989;48.962;9.182;2023-06-26T05:27:26;21.20;95.70
19680;DHT22;9989;48.962;9.182;2023-06-26T05:29:52;21.30;95.40
19680;DHT22;9989;48.962;9.182;2023-06-26T05:32:18;21.40;95.40
19680;DHT22;9989;48.962;9.182;2023-06-26T05:34:51;21.40;95.30
19680;DHT22;9989;48.962;9.182;2023-06-26T05:37:21;21.50;95.30
19680;DHT22;9989;48.962;9.182;2023-06-26T05:39:47;21.60;95.20
19680;DHT22;9989;48.962;9.182;2023-06-26T05:42:13;21.70;95.10
19680;DHT22;9989;48.962;9.182;2023-06-26T05:44:39;21.80;95.10
19680;DHT22;9989;48.962;9.182;2023-06-26T05:47:05;21.80;94.90
19680;DHT22;9989;48.962;9.182;2023-06-26T05:49:31;21.80;94.90
19680;DHT22;9989;48.962;9.182;2023-06-26T05:51:56;21.90;94.70
19680;DHT22;9989;48.962;9.182;2023-06-26T05:54:24;21.90;94.40
19680;DHT22;9989;48.962;9.182;2023-06-26T05:56:56;22.00;94.20
19680;DHT22;9989;48.962;9.182;2023-06-26T05:59:22;22.00;94.30
19680;DHT22;9989;48.962;9.182;2023-06-26T06:01:48;22.20;94.60
19680;DHT22;9989;48.962;9.182;2023-06-26T06:04:14;22.20;94.60
19680;DHT22;9989;48.962;9.182;2023-06-26T06:06:39;22.30;94.60
19680;DHT22;9989;48.962;9.182;2023-06-26T06:09:05;22.30;94.40
19680;DHT22;9989;48.962;9.182;2023-06-26T06:11:31;22.40;94.50
19680;DHT22;9989;48.962;9.182;2023-06-26T06:13:56;22.50;94.50
19680;DHT22;9989;48.962;9.182;2023-06-26T06:16:24;22.50;94.20
19680;DHT22;9989;48.962;9.182;2023-06-26T06:18:50;22.60;94.30
19680;DHT22;9989;48.962;9.182;2023-06-26T06:21:15;22.70;94.20
19680;DHT22;9989;48.962;9.182;2023-06-26T06:23:41;22.70;94.40
19680;DHT22;9989;48.962;9.182;2023-06-26T06:26:06;22.80;94.20
19680;DHT22;9989;48.962;9.182;2023-06-26T06:28:32;22.90;93.90
19680;DHT22;9989;48.962;9.182;2023-06-26T06:30:58;22.90;93.80
19680;DHT22;9989;48.962;9.182;2023-06-26T06:33:23;23.00;93.90
19680;DHT22;9989;48.962;9.182;2023-06-26T06:35:49;23.00;94.10
19680;DHT22;9989;48.962;9.182;2023-06-26T06:38:14;23.10;94.10
19680;DHT22;9989;48.962;9.182;2023-06-26T06:40:40;23.20;94.10
19680;DHT22;9989;48.962;9.182;2023-06-26T06:43:06;23.30;94.30
19680;DHT22;9989;48.962;9.182;2023-06-26T06:45:31;23.40;94.40
19680;DHT22;9989;48.962;9.182;2023-06-26T06:47:57;23.50;94.40
19680;DHT22;9989;48.962;9.182;2023-06-26T06:50:23;23.60;94.20
19680;DHT22;9989;48.962;9.182;2023-06-26T06:52:48;23.70;93.30
19680;DHT22;9989;48.962;9.182;2023-06-26T06:55:14;23.70;93.10
19680;DHT22;9989;48.962;9.182;2023-06-26T06:57:40;23.70;92.90
19680;DHT22;9989;48.962;9.182;2023-06-26T07:00:10;23.80;93.00
19680;DHT22;9989;48.962;9.182;2023-06-26T07:02:38;23.90;92.70
19680;DHT22;9989;48.962;9.182;2023-06-26T07:05:04;24.00;92.80
19680;DHT22;9989;48.962;9.182;2023-06-26T07:07:31;24.00;92.80
19680;DHT22;9989;48.962;9.182;2023-06-26T07:12:30;24.30;92.60
19680;DHT22;9989;48.962;9.182;2023-06-26T07:14:56;24.40;92.80
19680;DHT22;9989;48.962;9.182;2023-06-26T07:17:22;24.50;92.70
19680;DHT22;9989;48.962;9.182;2023-06-26T07:19:49;24.60;92.60
19680;DHT22;9989;48.962;9.182;2023-06-26T07:22:15;24.70;91.70
19680;DHT22;9989;48.962;9.182;2023-06-26T07:24:41;24.80;91.50
19680;DHT22;9989;48.962;9.182;2023-06-26T07:27:07;24.90;91.80
19680;DHT22;9989;48.962;9.182;2023-06-26T07:29:32;25.00;91.90
19680;DHT22;9989;48.962;9.182;2023-06-26T07:31:58;25.10;91.10
19680;DHT22;9989;48.962;9.182;2023-06-26T07:34:24;25.20;90.40
19680;DHT22;9989;48.962;9.182;2023-06-26T07:36:50;25.30;90.00
19680;DHT22;9989;48.962;9.182;2023-06-26T07:39:16;25.40;90.10
19680;DHT22;9989;48.962;9.182;2023-06-26T07:41:41;25.50;90.20
19680;DHT22;9989;48.962;9.182;2023-06-26T07:44:07;25.60;90.00
19680;DHT22;9989;48.962;9.182;2023-06-26T07:46:32;25.80;89.20
19680;DHT22;9989;48.962;9.182;2023-06-26T07:48:58;25.90;87.00
19680;DHT22;9989;48.962;9.182;2023-06-26T07:51:24;25.90;84.20
19680;DHT22;9989;48.962;9.182;2023-06-26T07:53:49;26.00;84.50
19680;DHT22;9989;48.962;9.182;2023-06-26T07:56:15;26.00;84.30
19680;DHT22;9989;48.962;9.182;2023-06-26T07:58:40;26.10;84.30
19680;DHT22;9989;48.962;9.182;2023-06-26T08:01:06;26.10;83.90
19680;DHT22;9989;48.962;9.182;2023-06-26T08:03:32;26.10;83.10
19680;DHT22;9989;48.962;9.182;2023-06-26T08:05:57;26.20;83.80
19680;DHT22;9989;48.962;9.182;2023-06-26T08:08:23;26.30;83.90
19680;DHT22;9989;48.962;9.182;2023-06-26T08:10:48;26.50;82.70
19680;DHT22;9989;48.962;9.182;2023-06-26T08:13:14;26.60;81.70
19680;DHT22;9989;48.962;9.182;2023-06-26T08:15:40;26.70;80.90
19680;DHT22;9989;48.962;9.182;2023-06-26T08:18:05;26.80;81.00
19680;DHT22;9989;48.962;9.182;2023-06-26T08:20:31;27.00;80.70
19680;DHT22;9989;48.962;9.182;2023-06-26T08:23:00;27.10;81.00
19680;DHT22;9989;48.962;9.182;2023-06-26T08:25:25;27.20;80.30
19680;DHT22;9989;48.962;9.182;2023-06-26T08:27:51;27.40;80.10
19680;DHT22;9989;48.962;9.182;2023-06-26T08:30:18;27.50;79.30
19680;DHT22;9989;48.962;9.182;2023-06-26T08:32:43;27.70;79.50
19680;DHT22;9989;48.962;9.182;2023-06-26T08:35:09;27.80;78.90
19680;DHT22;9989;48.962;9.182;2023-06-26T08:37:35;27.90;78.40
19680;DHT22;9989;48.962;9.182;2023-06-26T08:40:01;27.90;78.40
19680;DHT22;9989;48.962;9.182;2023-06-26T08:42:26;28.00;78.30
19680;DHT22;9989;48.962;9.182;2023-06-26T08:44:52;28.20;78.80
19680;DHT22;9989;48.962;9.182;2023-06-26T08:47:19;28.30;78.60
19680;DHT22;9989;48.962;9.182;2023-06-26T08:50:08;28.40;78.80
19680;DHT22;9989;48.962;9.182;2023-06-26T08:55:10;28.80;77.00
19680;DHT22;9989;48.962;9.182;2023-06-26T08:57:38;28.90;75.50
19680;DHT22;9989;48.962;9.182;2023-06-26T09:00:05;29.00;75.30
19680;DHT22;9989;48.962;9.182;2023-06-26T09:02:30;29.10;74.60
19680;DHT22;9989;48.962;9.182;2023-06-26T09:04:57;29.30;75.10
19680;DHT22;9989;48.962;9.182;2023-06-26T09:07:23;29.40;74.20
19680;DHT22;9989;48.962;9.182;2023-06-26T09:09:48;29.60;73.90
19680;DHT22;9989;48.962;9.182;2023-06-26T09:12:14;29.70;73.40
19680;DHT22;9989;48.962;9.182;2023-06-26T09:14:40;29.80;72.60
19680;DHT22;9989;48.962;9.182;2023-06-26T09:17:06;30.00;72.70
19680;DHT22;9989;48.962;9.182;2023-06-26T09:19:32;30.10;72.00
19680;DHT22;9989;48.962;9.182;2023-06-26T09:21:57;30.30;71.40
19680;DHT22;9989;48.962;9.182;2023-06-26T09:24:23;30.40;71.40
19680;DHT22;9989;48.962;9.182;2023-06-26T09:26:51;30.60;70.60
19680;DHT22;9989;48.962;9.182;2023-06-26T09:29:17;30.70;69.80
19680;DHT22;9989;48.962;9.182;2023-06-26T09:31:44;30.90;68.60
19680;DHT22;9989;48.962;9.182;2023-06-26T09:34:10;31.00;68.20
19680;DHT22;9989;48.962;9.182;2023-06-26T09:36:36;31.10;67.80
19680;DHT22;9989;48.962;9.182;2023-06-26T09:39:08;31.10;66.80
19680;DHT22;9989;48.962;9.182;2023-06-26T09:41:37;31.20;67.10
19680;DHT22;9989;48.962;9.182;2023-06-26T09:44:05;31.20;67.60
19680;DHT22;9989;48.962;9.182;2023-06-26T09:46:31;31.20;67.60
19680;DHT22;9989;48.962;9.182;2023-06-26T09:49:06;31.30;67.90
19680;DHT22;9989;48.962;9.182;2023-06-26T09:51:35;31.40;67.50
19680;DHT22;9989;48.962;9.182;2023-06-26T09:54:02;31.40;66.90
19680;DHT22;9989;48.962;9.182;2023-06-26T09:56:29;31.50;67.50
19680;DHT22;9989;48.962;9.182;2023-06-26T09:59:00;31.60;66.70
19680;DHT22;9989;48.962;9.182;2023-06-26T10:01:27;31.70;66.50
19680;DHT22;9989;48.962;9.182;2023-06-26T10:03:56;31.60;66.40
19680;DHT22;9989;48.962;9.182;2023-06-26T10:06:32;31.60;67.30
19680;DHT22;9989;48.962;9.182;2023-06-26T10:09:03;31.60;67.20
19680;DHT22;9989;48.962;9.182;2023-06-26T10:11:40;31.70;66.20
19680;DHT22;9989;48.962;9.182;2023-06-26T10:14:07;31.60;67.00
19680;DHT22;9989;48.962;9.182;2023-06-26T10:16:35;31.50;64.90
19680;DHT22;9989;48.962;9.182;2023-06-26T10:19:08;31.40;65.00
19680;DHT22;9989;48.962;9.182;2023-06-26T10:21:35;31.40;65.40
19680;DHT22;9989;48.962;9.182;2023-06-26T10:24:05;31.40;65.30
19680;DHT22;9989;48.962;9.182;2023-06-26T10:26:31;31.40;65.10
19680;DHT22;9989;48.962;9.182;2023-06-26T10:29:01;31.40;65.10
19680;DHT22;9989;48.962;9.182;2023-06-26T10:31:29;31.50;65.90
19680;DHT22;9989;48.962;9.182;2023-06-26T10:33:55;31.50;65.50
19680;DHT22;9989;48.962;9.182;2023-06-26T10:36:29;31.50;65.50
19680;DHT22;9989;48.962;9.182;2023-06-26T10:38:57;31.50;65.90
19680;DHT22;9989;48.962;9.182;2023-06-26T10:41:24;31.60;66.20
19680;DHT22;9989;48.962;9.182;2023-06-26T10:46:24;31.70;67.60
19680;DHT22;9989;48.962;9.182;2023-06-26T10:49:00;31.80;67.60
19680;DHT22;9989;48.962;9.182;2023-06-26T10:51:27;31.70;67.40
19680;DHT22;9989;48.962;9.182;2023-06-26T10:53:57;31.60;68.40
19680;DHT22;9989;48.962;9.182;2023-06-26T10:56:47;31.60;69.40
19680;DHT22;9989;48.962;9.182;2023-06-26T10:59:18;31.70;70.00
19680;DHT22;9989;48.962;9.182;2023-06-26T11:01:45;31.90;70.10
19680;DHT22;9989;48.962;9.182;2023-06-26T11:04:12;31.90;67.80
19680;DHT22;9989;48.962;9.182;2023-06-26T11:06:40;31.90;68.40
19680;DHT22;9989;48.962;9.182;2023-06-26T11:09:08;31.90;68.50
19680;DHT22;9989;48.962;9.182;2023-06-26T11:14:23;31.90;69.50
19680;DHT22;9989;48.962;9.182;2023-06-26T11:16:50;31.90;70.00
19680;DHT22;9989;48.962;9.182;2023-06-26T11:19:19;31.90;69.50
19680;DHT22;9989;48.962;9.182;2023-06-26T11:21:45;31.90;69.40
19680;DHT22;9989;48.962;9.182;2023-06-26T11:24:12;31.90;69.90
19680;DHT22;9989;48.962;9.182;2023-06-26T11:26:39;32.00;69.20
19680;DHT22;9989;48.962;9.182;2023-06-26T11:29:05;32.10;69.00
19680;DHT22;9989;48.962;9.182;2023-06-26T11:31:33;32.10;69.50
19680;DHT22;9989;48.962;9.182;2023-06-26T11:34:00;32.10;69.60
19680;DHT22;9989;48.962;9.182;2023-06-26T11:36:27;32.20;70.00
19680;DHT22;9989;48.962;9.182;2023-06-26T11:38:57;32.20;70.10
19680;DHT22;9989;48.962;9.182;2023-06-26T11:41:27;32.30;70.30
19680;DHT22;9989;48.962;9.182;2023-06-26T11:43:54;32.40;69.00
19680;DHT22;9989;48.962;9.182;2023-06-26T11:46:21;32.40;69.10
19680;DHT22;9989;48.962;9.182;2023-06-26T11:48:47;32.20;68.70
19680;DHT22;9989;48.962;9.182;2023-06-26T11:51:14;32.10;68.80
19680;DHT22;9989;48.962;9.182;2023-06-26T11:53:44;32.00;69.50
19680;DHT22;9989;48.962;9.182;2023-06-26T11:56:12;31.90;70.20
19680;DHT22;9989;48.962;9.182;2023-06-26T11:59:06;31.80;70.60
19680;DHT22;9989;48.962;9.182;2023-06-26T12:01:39;31.60;71.30
19680;DHT22;9989;48.962;9.182;2023-06-26T12:04:07;31.40;72.60
19680;DHT22;9989;48.962;9.182;2023-06-26T12:06:39;31.40;73.00
19680;DHT22;9989;48.962;9.182;2023-06-26T12:09:07;31.60;71.90
19680;DHT22;9989;48.962;9.182;2023-06-26T12:11:35;31.60;72.40
19680;DHT22;9989;48.962;9.182;2023-06-26T12:14:02;31.70;71.90
19680;DHT22;9989;48.962;9.182;2023-06-26T12:16:29;31.60;71.80
19680;DHT22;9989;48.962;9.182;2023-06-26T12:19:02;31.60;72.70
19680;DHT22;9989;48.962;9.182;2023-06-26T12:24:08;31.70;72.30
19680;DHT22;9989;48.962;9.182;2023-06-26T12:26:34;31.70;71.90
19680;DHT22;9989;48.962;9.182;2023-06-26T12:29:06;31.60;71.70
19680;DHT22;9989;48.962;9.182;2023-06-26T12:31:32;31.60;72.50
19680;DHT22;9989;48.962;9.182;2023-06-26T12:33:59;31.70;72.20
19680;DHT22;9989;48.962;9.182;2023-06-26T12:36:25;31.80;72.60
19680;DHT22;9989;48.962;9.182;2023-06-26T12:38:53;31.80;72.40
19680;DHT22;9989;48.962;9.182;2023-06-26T12:41:19;31.80;71.30
19680;DHT22;9989;48.962;9.182;2023-06-26T12:43:46;31.80;72.10
19680;DHT22;9989;48.962;9.182;2023-06-26T12:46:12;31.80;71.30
19680;DHT22;9989;48.962;9.182;2023-06-26T12:48:42;31.90;71.30
19680;DHT22;9989;48.962;9.182;2023-06-26T12:51:13;31.90;71.20
19680;DHT22;9989;48.962;9.182;2023-06-26T12:53:39;32.00;70.80
19680;DHT22;9989;48.962;9.182;2023-06-26T12:56:06;32.00;70.20
19680;DHT22;9989;48.962;9.182;2023-06-26T12:58:33;32.10;70.10
19680;DHT22;9989;48.962;9.182;2023-06-26T13:00:58;32.10;69.30
19680;DHT22;9989;48.962;9.182;2023-06-26T13:03:24;32.10;68.30
19680;DHT22;9989;48.962;9.182;2023-06-26T13:05:50;32.00;68.60
19680;DHT22;9989;48.962;9.182;2023-06-26T13:08:16;31.90;68.40
19680;DHT22;9989;48.962;9.182;2023-06-26T13:10:45;31.80;68.10
19680;DHT22;9989;48.962;9.182;2023-06-26T13:13:11;31.80;68.00
19680;DHT22;9989;48.962;9.182;2023-06-26T13:15:37;31.90;68.50
19680;DHT22;9989;48.962;9.182;2023-06-26T13:18:03;32.00;67.30
19680;DHT22;9989;48.962;9.182;2023-06-26T13:20:28;31.90;65.20
19680;DHT22;9989;48.962;9.182;2023-06-26T13:22:55;31.90;64.90
19680;DHT22;9989;48.962;9.182;2023-06-26T13:25:21;31.80;64.60
19680;DHT22;9989;48.962;9.182;2023-06-26T13:27:47;31.90;65.20
19680;DHT22;9989;48.962;9.182;2023-06-26T13:30:13;31.90;62.90
19680;DHT22;9989;48.962;9.182;2023-06-26T13:32:39;31.90;62.90
19680;DHT22;9989;48.962;9.182;2023-06-26T13:35:05;31.90;62.80
19680;DHT22;9989;48.962;9.182;2023-06-26T13:37:31;32.00;62.40
19680;DHT22;9989;48.962;9.182;2023-06-26T13:39:59;32.00;62.00
19680;DHT22;9989;48.962;9.182;2023-06-26T13:42:26;31.90;60.60
19680;DHT22;9989;48.962;9.182;2023-06-26T13:44:52;31.90;61.10
19680;DHT22;9989;48.962;9.182;2023-06-26T13:47:18;31.90;61.60
19680;DHT22;9989;48.962;9.182;2023-06-26T13:49:44;31.90;60.50
19680;DHT22;9989;48.962;9.182;2023-06-26T13:52:09;31.80;60.00
19680;DHT22;9989;48.962;9.182;2023-06-26T13:54:36;31.80;60.00
19680;DHT22;9989;48.962;9.182;2023-06-26T13:57:05;31.70;60.00
19680;DHT22;9989;48.962;9.182;2023-06-26T13:59:31;31.70;60.00
19680;DHT22;9989;48.962;9.182;2023-06-26T14:01:56;31.70;60.10
19680;DHT22;9989;48.962;9.182;2023-06-26T14:04:22;31.80;59.60
19680;DHT22;9989;48.962;9.182;2023-06-26T14:06:48;31.80;59.40
19680;DHT22;9989;48.962;9.182;2023-06-26T14:09:14;31.90;59.80
19680;DHT22;9989;48.962;9.182;2023-06-26T14:11:39;31.90;59.70
19680;DHT22;9989;48.962;9.182;2023-06-26T14:14:05;32.00;60.10
19680;DHT22;9989;48.962;9.182;2023-06-26T14:16:31;32.00;59.60
19680;DHT22;9989;48.962;9.182;2023-06-26T14:18:57;32.00;59.60
19680;DHT22;9989;48.962;9.182;2023-06-26T14:21:23;32.10;59.80
19680;DHT22;9989;48.962;9.182;2023-06-26T14:23:48;32.10;59.60
19680;DHT22;9989;48.962;9.182;2023-06-26T14:26:14;32.10;59.50
19680;DHT22;9989;48.962;9.182;2023-06-26T14:28:40;32.00;59.60
19680;DHT22;9989;48.962;9.182;2023-06-26T14:31:06;32.00;59.60
19680;DHT22;9989;48.962;9.182;2023-06-26T14:33:32;31.90;59.70
19680;DHT22;9989;48.962;9.182;2023-06-26T14:35:57;31.80;59.80
19680;DHT22;9989;48.962;9.182;2023-06-26T14:38:23;31.70;59.40
19680;DHT22;9989;48.962;9.182;2023-06-26T14:40:49;31.70;59.30
19680;DHT22;9989;48.962;9.182;2023-06-26T14:43:14;31.60;59.50
19680;DHT22;9989;48.962;9.182;2023-06-26T14:45:41;31.60;59.60
19680;DHT22;9989;48.962;9.182;2023-06-26T14:48:06;31.60;60.10
19680;DHT22;9989;48.962;9.182;2023-06-26T14:50:32;31.60;60.10
19680;DHT22;9989;48.962;9.182;2023-06-26T14:52:58;31.60;60.10
19680;DHT22;9989;48.962;9.182;2023-06-26T14:55:24;31.60;58.50
19680;DHT22;9989;48.962;9.182;2023-06-26T14:57:49;31.50;58.40
19680;DHT22;9989;48.962;9.182;2023-06-26T15:00:16;31.50;58.80
19680;DHT22;9989;48.962;9.182;2023-06-26T15:02:42;31.40;58.90
19680;DHT22;9989;48.962;9.182;2023-06-26T15:05:08;31.20;59.30
19680;DHT22;9989;48.962;9.182;2023-06-26T15:07:34;31.20;59.80
19680;DHT22;9989;48.962;9.182;2023-06-26T15:10:00;31.00;59.40
19680;DHT22;9989;48.962;9.182;2023-06-26T15:12:25;30.80;60.00
19680;DHT22;9989;48.962;9.182;2023-06-26T15:14:52;30.70;60.20
19680;DHT22;9989;48.962;9.182;2023-06-26T15:17:18;30.70;60.00
19680;DHT22;9989;48.962;9.182;2023-06-26T15:19:46;30.70;60.10
19680;DHT22;9989;48.962;9.182;2023-06-26T15:22:12;30.60;60.70
19680;DHT22;9989;48.962;9.182;2023-06-26T15:24:38;30.60;60.20
19680;DHT22;9989;48.962;9.182;2023-06-26T15:27:03;30.50;60.00
19680;DHT22;9989;48.962;9.182;2023-06-26T15:29:29;30.40;60.70
19680;DHT22;9989;48.962;9.182;2023-06-26T15:31:55;30.40;61.10
19680;DHT22;9989;48.962;9.182;2023-06-26T15:34:20;30.30;61.80
19680;DHT22;9989;48.962;9.182;2023-06-26T15:36:46;30.30;61.50
19680;DHT22;9989;48.962;9.182;2023-06-26T15:39:12;30.20;61.00
19680;DHT22;9989;48.962;9.182;2023-06-26T15:41:37;30.10;60.80
19680;DHT22;9989;48.962;9.182;2023-06-26T15:44:04;30.10;61.30
19680;DHT22;9989;48.962;9.182;2023-06-26T15:46:30;30.00;61.90
19680;DHT22;9989;48.962;9.182;2023-06-26T15:48:55;30.00;62.10
19680;DHT22;9989;48.962;9.182;2023-06-26T15:51:21;30.00;63.10
19680;DHT22;9989;48.962;9.182;2023-06-26T15:53:47;29.90;62.90
19680;DHT22;9989;48.962;9.182;2023-06-26T15:56:13;29.90;62.60
19680;DHT22;9989;48.962;9.182;2023-06-26T15:58:39;29.80;61.40